Impacts TAF Board
For situational awareness. Not to be used for flight planning purposes.
IDs:

KDMA - Tucson/Davis AFB, AZ, US

Issued at 1400 UTC 01 Feb 2023
Updated at 2209 UTC 01 Feb 2023
Potential Impact None Slight Moderate High
Time2155Z 01/23Z 02/00Z 02/01Z 02/02Z 02/03Z 02/04Z 02/05Z 02/06Z 02/07Z 02/08Z 02/09Z 02/10Z 02/11Z>>
Type OBS PRVL PRVL PRVL PRVL PRVL PRVL PRVL PRVL PRVL PRVL PRVL PRVL PRVL
VIS 10 >6 >6 >6 >6 >6 >6 >6 >6 >6 >6 >6 >6 >6
CIG 80 -- -- -- -- -- -- -- -- -- -- -- -- --
Cover BKN FEW FEW FEW FEW FEW SKC SKC SKC SKC SKC SKC SKC SKC
FltCat VFR VFR VFR VFR VFR VFR VFR VFR VFR VFR VFR VFR VFR VFR
WX -- -- -- -- -- -- -- -- -- -- -- -- -- --
WDir 290 300 300 300 300 300 VRB VRB VRB VRB VRB VRB VRB VRB
WSpd 8 9 9 9 9 9 6 6 6 6 6 6 6 6
WGst -- -- -- -- -- -- -- -- -- -- -- -- -- --
WSHgt -- -- -- -- -- -- -- -- -- -- -- -- -- --
WSDir -- -- -- -- -- -- -- -- -- -- -- -- -- --
WSSpd -- -- -- -- -- -- -- -- -- -- -- -- -- --
R12/30
XWnd -4 -3 -3 -3 -3 -3 VRB VRB VRB VRB VRB VRB VRB VRB
HWnd -7 -9 -9 -9 -9 -9 VRB VRB VRB VRB VRB VRB VRB VRB

NOTE: LAMP data beyond the time of the TAF data is denoted as LAMP in Type and colored magenta.

Raw TAF
TAF KDMA 011400Z 0114/0220 12009KT 9999 FEW070 QNH3005INS
  BECMG 0119/0120 30009KT 9999 FEW070 QNH2992INS
  BECMG 0204/0205 VRB06KT 9999 SKC QNH3015INS TX17/0122Z TN01/0114Z


Raw METAR
KDMA 012155Z AUTO 29008KT 10SM BKN080 16/01 A3000 RMK AO2 SLP148 T01550009 $
KDMA 012059Z AUTO 27011KT 10SM FEW090 15/00 A3000 RMK AO2 WSHFT 55 SLP191 $
KDMA 012055Z AUTO 31011G15KT 10SM FEW090 15/00 A3000 RMK AO2 SLP191 T01530003 57023 $
KDMA 011955Z AUTO 29006KT 10SM CLR 13/02 A3002 RMK AO2 SLP200 T01340017 $

METAR Board
Radar Display
Forecast Discussion

For situational awareness. Not to be used for flight planning purposes.